createdAt,value
2023-10-08T00:01:15.857Z,18.30
2023-10-08T00:03:50.828Z,18.30
2023-10-08T00:06:25.126Z,18.30
2023-10-08T00:08:52.195Z,18.30
2023-10-08T00:11:20.980Z,18.30
2023-10-08T00:13:50.938Z,18.20
2023-10-08T00:16:19.594Z,18.20
2023-10-08T00:18:53.817Z,18.20
2023-10-08T00:21:29.560Z,18.20
2023-10-08T00:24:00.553Z,18.20
2023-10-08T00:26:29.556Z,18.20
2023-10-08T00:28:58.481Z,18.10
2023-10-08T00:31:31.443Z,18.10
2023-10-08T00:33:59.073Z,18.10
2023-10-08T00:36:26.168Z,18.10
2023-10-08T00:38:55.993Z,18.10
2023-10-08T00:41:23.274Z,18.00
2023-10-08T00:43:52.139Z,18.00
2023-10-08T00:46:27.742Z,18.00
2023-10-08T00:49:04.210Z,18.00
2023-10-08T00:51:41.685Z,17.90
2023-10-08T00:54:08.838Z,18.00
2023-10-08T00:56:47.763Z,17.90
2023-10-08T00:59:17.619Z,18.00
2023-10-08T01:01:52.827Z,17.90
2023-10-08T01:04:23.929Z,17.90
2023-10-08T01:07:13.822Z,17.90
2023-10-08T01:09:45.761Z,17.90
2023-10-08T01:12:35.019Z,17.90
2023-10-08T01:15:17.545Z,18.00
2023-10-08T01:17:59.321Z,17.90
2023-10-08T01:20:35.983Z,17.90
2023-10-08T01:23:14.844Z,17.90
2023-10-08T01:25:43.680Z,17.90
2023-10-08T01:28:16.409Z,17.90
2023-10-08T01:30:47.990Z,17.90
2023-10-08T01:33:17.605Z,17.90
2023-10-08T01:35:44.955Z,17.90
2023-10-08T01:38:14.997Z,17.90
2023-10-08T01:40:51.604Z,17.90
2023-10-08T01:43:19.121Z,17.90
2023-10-08T01:45:49.545Z,17.90
2023-10-08T01:48:21.930Z,17.90
2023-10-08T01:50:49.094Z,17.90
2023-10-08T01:53:17.441Z,17.90
2023-10-08T01:55:50.531Z,17.90
2023-10-08T01:58:18.067Z,17.90
2023-10-08T02:00:48.224Z,17.90
2023-10-08T02:03:17.483Z,17.90
2023-10-08T02:05:44.947Z,17.90
2023-10-08T02:08:12.454Z,17.90
2023-10-08T02:10:41.401Z,17.80
2023-10-08T02:13:14.647Z,17.90
2023-10-08T02:15:46.419Z,17.90
2023-10-08T02:18:13.985Z,17.90
2023-10-08T02:20:41.401Z,17.90
2023-10-08T02:23:08.498Z,17.90
2023-10-08T02:25:38.785Z,17.90
2023-10-08T02:28:09.674Z,17.80
2023-10-08T02:30:37.826Z,17.80
2023-10-08T02:33:05.261Z,17.80
2023-10-08T02:35:32.752Z,17.70
2023-10-08T02:38:00.269Z,17.70
2023-10-08T02:40:27.908Z,17.70
2023-10-08T02:42:59.305Z,17.70
2023-10-08T02:45:30.286Z,17.60
2023-10-08T02:47:58.490Z,17.60
2023-10-08T02:50:28.536Z,17.60
2023-10-08T02:52:55.585Z,17.50
2023-10-08T02:55:37.462Z,17.50
2023-10-08T02:58:04.557Z,17.50
2023-10-08T03:00:35.132Z,17.40
2023-10-08T03:03:03.295Z,17.30
2023-10-08T03:05:37.320Z,17.20
2023-10-08T03:08:11.927Z,17.20
2023-10-08T03:10:42.730Z,17.10
2023-10-08T03:13:11.152Z,17.00
2023-10-08T03:15:56.580Z,17.00
2023-10-08T03:18:23.595Z,16.90
2023-10-08T03:20:50.874Z,16.90
2023-10-08T03:23:35.358Z,16.90
2023-10-08T03:26:22.989Z,16.80
2023-10-08T03:28:58.651Z,16.80
2023-10-08T03:31:44.700Z,16.80
2023-10-08T03:34:16.106Z,16.80
2023-10-08T03:36:46.104Z,16.80
2023-10-08T03:39:16.491Z,16.80
2023-10-08T03:41:43.775Z,16.80
2023-10-08T03:44:14.025Z,16.70
2023-10-08T03:46:43.837Z,16.60
2023-10-08T03:49:16.669Z,16.50
2023-10-08T03:51:43.743Z,16.40
2023-10-08T03:54:10.650Z,16.30
2023-10-08T03:56:38.088Z,16.20
2023-10-08T03:59:14.025Z,16.20
2023-10-08T04:01:45.109Z,16.20
2023-10-08T04:04:15.474Z,16.20
2023-10-08T04:06:49.164Z,16.10
2023-10-08T04:09:22.381Z,16.10
2023-10-08T04:11:52.147Z,16.00
2023-10-08T04:14:24.503Z,16.00
2023-10-08T04:16:55.261Z,16.00
2023-10-08T04:19:28.313Z,15.90
2023-10-08T04:21:55.757Z,15.90
2023-10-08T04:24:29.906Z,15.80
2023-10-08T04:26:58.584Z,15.80
2023-10-08T04:29:27.144Z,15.80
2023-10-08T04:32:08.807Z,15.80
2023-10-08T04:34:36.423Z,15.90
2023-10-08T04:37:05.084Z,15.90
2023-10-08T04:39:35.163Z,15.90
2023-10-08T04:42:12.041Z,15.90
2023-10-08T04:44:40.485Z,16.00
2023-10-08T04:47:10.748Z,16.00
2023-10-08T04:49:46.679Z,16.00
2023-10-08T04:52:16.363Z,16.00
2023-10-08T04:54:52.170Z,16.00
2023-10-08T04:57:23.033Z,16.00
2023-10-08T04:59:51.843Z,16.00
2023-10-08T05:02:37.534Z,16.00
2023-10-08T05:05:13.332Z,16.10
2023-10-08T05:07:46.538Z,16.10
2023-10-08T05:10:25.847Z,16.10
2023-10-08T05:13:05.116Z,16.10
2023-10-08T05:15:43.141Z,16.10
2023-10-08T05:18:15.425Z,16.10
2023-10-08T05:20:51.329Z,16.10
2023-10-08T05:23:42.376Z,16.10
2023-10-08T05:26:09.366Z,16.10
2023-10-08T05:28:47.738Z,16.20
2023-10-08T05:31:37.791Z,16.20
2023-10-08T05:34:19.380Z,16.20
2023-10-08T05:37:12.271Z,16.20
2023-10-08T05:39:39.557Z,16.20
2023-10-08T05:42:14.796Z,16.10
2023-10-08T05:45:08.566Z,16.10
2023-10-08T05:47:35.821Z,16.10
2023-10-08T05:50:18.912Z,16.00
2023-10-08T05:53:03.444Z,16.00
2023-10-08T05:55:35.654Z,15.90
2023-10-08T05:58:15.124Z,15.80
2023-10-08T06:00:52.063Z,15.70
2023-10-08T06:03:42.719Z,15.70
2023-10-08T06:06:12.864Z,15.70
2023-10-08T06:08:59.089Z,15.60
2023-10-08T06:11:42.770Z,15.60
2023-10-08T06:14:18.330Z,15.50
2023-10-08T06:16:45.739Z,15.60
2023-10-08T06:19:13.529Z,15.60
2023-10-08T06:21:42.794Z,15.60
2023-10-08T06:24:10.460Z,15.60
2023-10-08T06:26:43.612Z,15.50
2023-10-08T06:29:34.120Z,15.60
2023-10-08T06:32:03.595Z,15.60
2023-10-08T06:34:30.589Z,15.70
2023-10-08T06:36:59.267Z,15.70
2023-10-08T06:39:48.554Z,15.70
2023-10-08T06:42:17.232Z,15.70
2023-10-08T06:44:47.426Z,15.80
2023-10-08T06:47:17.416Z,15.80
2023-10-08T06:49:45.026Z,15.90
2023-10-08T06:52:13.981Z,15.90
2023-10-08T06:54:43.990Z,16.00
2023-10-08T06:57:15.548Z,16.00
2023-10-08T06:59:44.141Z,16.00
2023-10-08T07:02:11.967Z,16.10
2023-10-08T07:04:41.091Z,16.10
2023-10-08T07:07:10.600Z,16.10
2023-10-08T07:09:37.637Z,16.10
2023-10-08T07:12:07.585Z,16.10
2023-10-08T07:14:35.114Z,16.10
2023-10-08T07:17:02.801Z,16.10
2023-10-08T07:19:40.695Z,16.10
2023-10-08T07:22:20.086Z,16.10
2023-10-08T07:24:51.454Z,16.10
2023-10-08T07:27:22.836Z,16.10
2023-10-08T07:29:50.761Z,16.10
2023-10-08T07:32:19.928Z,16.20
2023-10-08T07:34:46.936Z,16.20
2023-10-08T07:37:15.240Z,16.20
2023-10-08T07:39:48.429Z,16.30
2023-10-08T07:42:15.749Z,16.30
2023-10-08T07:44:42.860Z,16.30
2023-10-08T07:47:12.774Z,16.40
2023-10-08T07:49:39.926Z,16.40
2023-10-08T07:52:07.143Z,16.50
2023-10-08T07:54:36.986Z,16.60
2023-10-08T07:57:10.480Z,16.60
2023-10-08T07:59:48.334Z,16.60
2023-10-08T08:02:17.709Z,16.60
2023-10-08T08:04:46.380Z,16.70
2023-10-08T08:07:22.863Z,16.70
2023-10-08T08:09:53.802Z,16.70
2023-10-08T08:12:26.225Z,16.80
2023-10-08T08:14:53.511Z,16.90
2023-10-08T08:17:20.755Z,16.90
2023-10-08T08:19:48.619Z,17.00
2023-10-08T08:22:32.031Z,17.10
2023-10-08T08:25:17.517Z,17.10
2023-10-08T08:27:54.206Z,17.20
2023-10-08T08:30:21.736Z,17.20
2023-10-08T08:32:53.185Z,17.30
2023-10-08T08:35:21.425Z,17.30
2023-10-08T08:37:51.148Z,17.40
2023-10-08T08:40:26.002Z,17.40
2023-10-08T08:42:59.826Z,17.50
2023-10-08T08:45:27.635Z,17.50
2023-10-08T08:47:55.125Z,17.60
2023-10-08T08:50:22.718Z,17.70
2023-10-08T08:52:49.767Z,17.70
2023-10-08T08:55:18.242Z,17.80
2023-10-08T08:57:49.445Z,17.80
2023-10-08T09:00:18.290Z,17.90
2023-10-08T09:02:46.166Z,18.00
2023-10-08T09:05:26.921Z,18.10
2023-10-08T09:07:59.160Z,18.20
2023-10-08T09:10:30.083Z,18.30
2023-10-08T09:13:01.053Z,18.40
2023-10-08T09:15:28.257Z,18.40
2023-10-08T09:17:56.317Z,18.50
2023-10-08T09:20:24.128Z,18.50
2023-10-08T09:23:13.222Z,18.50
2023-10-08T09:25:44.573Z,18.60
2023-10-08T09:28:14.278Z,18.70
2023-10-08T09:30:42.321Z,18.70
2023-10-08T09:33:10.804Z,18.80
2023-10-08T09:35:38.123Z,18.80
2023-10-08T09:38:05.867Z,18.90
2023-10-08T09:40:34.232Z,18.90
2023-10-08T09:43:01.250Z,18.90
2023-10-08T09:45:29.330Z,19.00
2023-10-08T09:47:56.979Z,19.10
2023-10-08T09:50:33.541Z,19.10
2023-10-08T09:53:05.191Z,19.10
2023-10-08T09:55:32.115Z,19.20
2023-10-08T09:57:58.908Z,19.20
2023-10-08T10:00:32.745Z,19.20
2023-10-08T10:03:03.681Z,19.20
2023-10-08T10:05:31.984Z,19.30
2023-10-08T10:07:59.280Z,19.30
2023-10-08T10:10:35.525Z,19.30
2023-10-08T10:13:09.146Z,19.40
2023-10-08T10:15:38.063Z,19.50
2023-10-08T10:18:15.130Z,19.60
2023-10-08T10:21:14.417Z,19.70
2023-10-08T10:23:43.928Z,19.70
2023-10-08T10:26:27.584Z,19.80
2023-10-08T10:29:15.617Z,19.80
2023-10-08T10:31:54.124Z,19.90
2023-10-08T10:34:40.168Z,20.00
2023-10-08T10:37:10.930Z,20.10
2023-10-08T10:39:43.061Z,20.20
2023-10-08T10:42:30.924Z,20.30
2023-10-08T10:44:59.710Z,20.30
2023-10-08T10:47:43.827Z,20.40
2023-10-08T10:50:28.070Z,20.30
2023-10-08T10:52:55.217Z,20.40
2023-10-08T10:55:23.904Z,20.40
2023-10-08T10:57:58.513Z,20.50
2023-10-08T11:00:35.100Z,20.50
2023-10-08T11:03:29.705Z,20.60
2023-10-08T11:06:01.453Z,20.60
2023-10-08T11:08:35.646Z,20.70
2023-10-08T11:11:06.554Z,20.70
2023-10-08T11:13:40.094Z,20.80
2023-10-08T11:16:10.089Z,20.80
2023-10-08T11:18:43.979Z,20.80
2023-10-08T11:21:17.967Z,20.90
2023-10-08T11:23:54.369Z,20.90
2023-10-08T11:26:33.111Z,21.00
2023-10-08T11:29:04.650Z,21.10
2023-10-08T11:31:35.399Z,21.20
2023-10-08T11:34:14.250Z,21.30
2023-10-08T11:36:51.034Z,21.40
2023-10-08T11:39:24.265Z,21.50
2023-10-08T11:42:25.803Z,21.60
2023-10-08T11:44:53.746Z,21.60
2023-10-08T11:47:23.960Z,21.70
2023-10-08T11:50:10.128Z,21.80
2023-10-08T11:52:42.935Z,21.80
2023-10-08T11:55:11.163Z,21.90
2023-10-08T11:57:46.345Z,22.00
2023-10-08T12:00:31.945Z,22.00
2023-10-08T12:02:59.506Z,22.00
2023-10-08T12:05:26.939Z,22.10
2023-10-08T12:07:59.307Z,22.10
2023-10-08T12:10:26.518Z,22.10
2023-10-08T12:12:54.473Z,22.20
2023-10-08T12:15:22.161Z,22.20
2023-10-08T12:18:10.226Z,22.20
2023-10-08T12:20:40.969Z,22.20
2023-10-08T12:23:11.691Z,22.30
2023-10-08T12:25:39.043Z,22.30
2023-10-08T12:28:06.537Z,22.30
2023-10-08T12:30:42.412Z,22.30
2023-10-08T12:33:13.683Z,22.30
2023-10-08T12:35:41.695Z,22.30
2023-10-08T12:38:10.234Z,22.30
2023-10-08T12:40:48.503Z,22.30
2023-10-08T12:43:20.292Z,22.30
2023-10-08T12:45:53.218Z,22.40
2023-10-08T12:48:25.649Z,22.40
2023-10-08T12:50:58.837Z,22.30
2023-10-08T12:53:38.020Z,22.30
2023-10-08T12:56:16.230Z,22.40
2023-10-08T12:58:49.241Z,22.40
2023-10-08T13:01:18.739Z,22.40
2023-10-08T13:03:48.747Z,22.40
2023-10-08T13:06:23.768Z,22.50
2023-10-08T13:08:53.854Z,22.50
2023-10-08T13:11:23.635Z,22.40
2023-10-08T13:13:57.660Z,22.40
2023-10-08T13:16:26.082Z,22.40
2023-10-08T13:18:58.012Z,22.50
2023-10-08T13:21:29.646Z,22.40
2023-10-08T13:24:04.301Z,22.40
2023-10-08T13:26:34.192Z,22.40
2023-10-08T13:29:01.351Z,22.50
2023-10-08T13:31:28.516Z,22.50
2023-10-08T13:33:58.476Z,22.40
2023-10-08T13:36:25.800Z,22.40
2023-10-08T13:38:53.330Z,22.50
2023-10-08T13:41:20.392Z,22.50
2023-10-08T13:43:52.802Z,22.50
2023-10-08T13:46:26.354Z,22.50
2023-10-08T13:49:02.521Z,22.60
2023-10-08T13:51:29.592Z,22.60
2023-10-08T13:54:00.876Z,22.60
2023-10-08T13:56:30.981Z,22.50
2023-10-08T13:59:13.912Z,22.60
2023-10-08T14:01:44.532Z,22.60
2023-10-08T14:04:11.812Z,22.60
2023-10-08T14:06:43.209Z,22.60
2023-10-08T14:09:13.439Z,22.70
2023-10-08T14:11:40.719Z,22.60
2023-10-08T14:14:12.709Z,22.70
2023-10-08T14:16:43.372Z,22.70
2023-10-08T14:19:14.297Z,22.70
2023-10-08T14:21:51.228Z,22.70
2023-10-08T14:24:18.617Z,22.70
2023-10-08T14:26:52.909Z,22.70
2023-10-08T14:29:19.882Z,22.70
2023-10-08T14:31:50.048Z,22.70
2023-10-08T14:34:17.658Z,22.70
2023-10-08T14:37:09.533Z,22.70
2023-10-08T14:39:57.764Z,22.70
2023-10-08T14:42:43.555Z,22.70
2023-10-08T14:45:14.718Z,22.60
2023-10-08T14:47:42.708Z,22.60
2023-10-08T14:50:17.261Z,22.60
2023-10-08T14:52:45.207Z,22.70
2023-10-08T14:55:16.317Z,22.70
2023-10-08T14:57:43.554Z,22.70
2023-10-08T15:00:11.908Z,22.80
2023-10-08T15:02:39.823Z,22.70
2023-10-08T15:05:09.602Z,22.80
2023-10-08T15:07:37.449Z,22.90
2023-10-08T15:10:04.769Z,22.90
2023-10-08T15:12:35.957Z,22.90
2023-10-08T15:15:14.221Z,22.90
2023-10-08T15:17:42.828Z,22.80
2023-10-08T15:20:17.926Z,22.80
2023-10-08T15:22:45.432Z,22.80
2023-10-08T15:25:12.845Z,22.80
2023-10-08T15:27:45.292Z,22.70
2023-10-08T15:30:13.561Z,22.70
2023-10-08T15:32:41.164Z,22.70
2023-10-08T15:35:15.387Z,22.70
2023-10-08T15:37:43.154Z,22.60
2023-10-08T15:40:18.630Z,22.60
2023-10-08T15:42:49.548Z,22.60
2023-10-08T15:45:16.807Z,22.60
2023-10-08T15:47:43.843Z,22.50
2023-10-08T15:50:16.546Z,22.50
2023-10-08T15:52:45.892Z,22.40
2023-10-08T15:55:13.239Z,22.40
2023-10-08T15:57:40.397Z,22.40
2023-10-08T16:00:09.285Z,22.30
2023-10-08T16:02:36.478Z,22.30
2023-10-08T16:05:09.162Z,22.30
2023-10-08T16:07:36.399Z,22.30
2023-10-08T16:10:14.262Z,22.20
2023-10-08T16:12:45.150Z,22.20
2023-10-08T16:15:12.276Z,22.20
2023-10-08T16:17:40.505Z,22.10
2023-10-08T16:20:15.567Z,22.10
2023-10-08T16:22:45.456Z,22.10
2023-10-08T16:25:17.070Z,22.00
2023-10-08T16:27:50.828Z,22.00
2023-10-08T16:30:18.697Z,22.00
2023-10-08T16:32:48.602Z,21.90
2023-10-08T16:35:16.426Z,21.80
2023-10-08T16:37:46.364Z,21.80
2023-10-08T16:40:14.342Z,21.70
2023-10-08T16:42:42.012Z,21.70
2023-10-08T16:45:11.165Z,21.70
2023-10-08T16:47:38.184Z,21.60
2023-10-08T16:50:06.055Z,21.60
2023-10-08T16:52:35.702Z,21.60
2023-10-08T16:55:02.760Z,21.50
2023-10-08T16:57:29.697Z,21.50
2023-10-08T16:59:56.722Z,21.40
2023-10-08T17:02:23.885Z,21.30
2023-10-08T17:04:51.190Z,21.30
2023-10-08T17:07:20.566Z,21.20
2023-10-08T17:09:47.534Z,21.20
2023-10-08T17:12:19.012Z,21.10
2023-10-08T17:14:46.050Z,21.00
2023-10-08T17:17:15.092Z,20.90
2023-10-08T17:19:43.115Z,20.80
2023-10-08T17:22:12.128Z,20.80
2023-10-08T17:24:42.480Z,20.80
2023-10-08T17:27:15.078Z,20.70
2023-10-08T17:29:47.310Z,20.60
2023-10-08T17:32:14.206Z,20.60
2023-10-08T17:34:41.277Z,20.50
2023-10-08T17:37:08.234Z,20.50
2023-10-08T17:39:35.172Z,20.40
2023-10-08T17:42:02.236Z,20.40
2023-10-08T17:44:29.236Z,20.40
2023-10-08T17:46:56.945Z,20.30
2023-10-08T17:49:23.878Z,20.30
2023-10-08T17:51:50.896Z,20.30
2023-10-08T17:54:18.011Z,20.30
2023-10-08T17:56:44.996Z,20.30
2023-10-08T17:59:15.411Z,20.20
2023-10-08T18:01:43.396Z,20.20
2023-10-08T18:04:14.578Z,20.20
2023-10-08T18:06:45.651Z,20.10
2023-10-08T18:09:14.050Z,20.10
2023-10-08T18:11:44.054Z,20.00
2023-10-08T18:14:12.689Z,20.00
2023-10-08T18:16:43.813Z,20.00
2023-10-08T18:19:12.046Z,20.00
2023-10-08T18:21:40.022Z,19.90
2023-10-08T18:24:07.890Z,19.90
2023-10-08T18:26:37.113Z,19.90
2023-10-08T18:29:06.820Z,19.80
2023-10-08T18:31:37.140Z,19.80
2023-10-08T18:34:04.835Z,19.70
2023-10-08T18:36:31.844Z,19.70
2023-10-08T18:38:58.947Z,19.70
2023-10-08T18:41:27.084Z,19.70
2023-10-08T18:43:54.464Z,19.70
2023-10-08T18:46:21.588Z,19.70
2023-10-08T18:48:48.598Z,19.60
2023-10-08T18:51:16.264Z,19.60
2023-10-08T18:53:46.553Z,19.60
2023-10-08T18:56:15.974Z,19.60
2023-10-08T18:58:43.578Z,19.50
2023-10-08T19:01:13.282Z,19.50
2023-10-08T19:03:41.595Z,19.50
2023-10-08T19:06:09.309Z,19.50
2023-10-08T19:08:37.320Z,19.50
2023-10-08T19:11:08.786Z,19.50
2023-10-08T19:13:37.028Z,19.50
2023-10-08T19:16:10.034Z,19.50
2023-10-08T19:18:42.952Z,19.50
2023-10-08T19:21:19.156Z,19.50
2023-10-08T19:23:46.993Z,19.40
2023-10-08T19:26:18.342Z,19.40
2023-10-08T19:28:46.872Z,19.30
2023-10-08T19:31:15.604Z,19.30
2023-10-08T19:33:42.868Z,19.30
2023-10-08T19:36:10.078Z,19.30
2023-10-08T19:38:39.795Z,19.20
2023-10-08T19:41:15.889Z,19.20
2023-10-08T19:43:43.379Z,19.20
2023-10-08T19:46:16.510Z,19.20
2023-10-08T19:48:45.719Z,19.10
2023-10-08T19:51:13.860Z,19.10
2023-10-08T19:53:40.920Z,19.10
2023-10-08T19:56:08.150Z,19.10
2023-10-08T19:58:38.536Z,19.10
2023-10-08T20:01:05.761Z,19.00
2023-10-08T20:03:33.291Z,19.00
2023-10-08T20:06:00.471Z,19.00
2023-10-08T20:08:27.551Z,19.00
2023-10-08T20:10:54.519Z,18.90
2023-10-08T20:13:22.060Z,18.90
2023-10-08T20:15:55.303Z,18.90
2023-10-08T20:18:22.756Z,18.90
2023-10-08T20:20:50.149Z,18.80
2023-10-08T20:23:19.463Z,18.70
2023-10-08T20:25:48.192Z,18.80
2023-10-08T20:28:16.990Z,18.70
2023-10-08T20:30:45.174Z,18.70
2023-10-08T20:33:12.486Z,18.70
2023-10-08T20:35:40.747Z,18.60
2023-10-08T20:38:07.711Z,18.50
2023-10-08T20:40:35.389Z,18.50
2023-10-08T20:43:02.453Z,18.40
2023-10-08T20:45:31.491Z,18.40
2023-10-08T20:47:59.787Z,18.30
2023-10-08T20:50:32.446Z,18.40
2023-10-08T20:53:02.307Z,18.30
2023-10-08T20:55:35.757Z,18.30
2023-10-08T20:58:02.998Z,18.30
2023-10-08T21:00:35.625Z,18.30
2023-10-08T21:03:07.040Z,18.30
2023-10-08T21:05:37.558Z,18.20
2023-10-08T21:08:05.700Z,18.20
2023-10-08T21:10:56.707Z,18.20
2023-10-08T21:13:25.924Z,18.10
2023-10-08T21:15:53.151Z,18.10
2023-10-08T21:18:21.175Z,18.10
2023-10-08T21:20:52.255Z,18.10
2023-10-08T21:23:19.481Z,18.00
2023-10-08T21:25:46.948Z,18.00
2023-10-08T21:28:14.824Z,18.00
2023-10-08T21:30:42.218Z,18.00
2023-10-08T21:33:10.548Z,18.00
2023-10-08T21:35:38.966Z,18.00
2023-10-08T21:38:07.466Z,18.00
2023-10-08T21:40:35.992Z,17.90
2023-10-08T21:43:05.438Z,18.00
2023-10-08T21:45:33.051Z,18.00
2023-10-08T21:48:01.737Z,18.00
2023-10-08T21:50:29.222Z,18.00
2023-10-08T21:52:56.178Z,18.10
2023-10-08T21:55:24.826Z,18.10
2023-10-08T21:57:54.361Z,18.20
2023-10-08T22:00:22.396Z,18.20
2023-10-08T22:02:59.569Z,18.20
2023-10-08T22:05:31.676Z,18.20
2023-10-08T22:07:59.236Z,18.30
2023-10-08T22:10:29.414Z,18.30
2023-10-08T22:13:00.148Z,18.30
2023-10-08T22:15:30.829Z,18.30
2023-10-08T22:18:03.113Z,18.30
2023-10-08T22:20:35.729Z,18.30
2023-10-08T22:23:09.305Z,18.30
2023-10-08T22:25:40.015Z,18.30
2023-10-08T22:28:13.385Z,18.30
2023-10-08T22:30:43.848Z,18.30
2023-10-08T22:33:13.032Z,18.30
2023-10-08T22:35:45.780Z,18.40
2023-10-08T22:38:18.579Z,18.40
2023-10-08T22:40:57.534Z,18.40
2023-10-08T22:43:29.621Z,18.40
2023-10-08T22:45:58.731Z,18.30
2023-10-08T22:48:37.061Z,18.30
2023-10-08T22:51:11.095Z,18.30
2023-10-08T22:53:44.195Z,18.20
2023-10-08T22:56:12.088Z,18.20
2023-10-08T22:58:40.619Z,18.20
2023-10-08T23:01:19.654Z,18.10
2023-10-08T23:03:48.054Z,18.10
2023-10-08T23:06:18.587Z,18.10
2023-10-08T23:08:45.820Z,18.00
2023-10-08T23:11:13.213Z,17.90
2023-10-08T23:13:40.606Z,17.90
2023-10-08T23:16:07.804Z,17.80
2023-10-08T23:18:36.884Z,17.80
2023-10-08T23:21:07.422Z,17.80
2023-10-08T23:23:38.949Z,17.80
2023-10-08T23:26:11.304Z,17.80
2023-10-08T23:28:39.165Z,17.70
2023-10-08T23:31:09.961Z,17.70
2023-10-08T23:33:40.586Z,17.70
2023-10-08T23:36:14.791Z,17.60
2023-10-08T23:38:43.282Z,17.60
2023-10-08T23:41:17.880Z,17.60
2023-10-08T23:43:55.211Z,17.50
2023-10-08T23:46:33.569Z,17.50
2023-10-08T23:49:27.996Z,17.40
2023-10-08T23:51:58.130Z,17.30
2023-10-08T23:54:26.263Z,17.30
2023-10-08T23:56:59.356Z,17.30
2023-10-08T23:59:42.811Z,17.30
